sensor_id;sensor_type;location;lat;lon;timestamp;pressure;altitude;pressure_sealevel;temperature;humidity
74921;BME280;63483;47.384;8.860;2023-12-07T00:02:25;94848.63;;;0.03;55.07
74921;BME280;63483;47.384;8.860;2023-12-07T00:04:50;94855.41;;;0.04;54.69
74921;BME280;63483;47.384;8.860;2023-12-07T00:07:15;94857.28;;;0.02;55.16
74921;BME280;63483;47.384;8.860;2023-12-07T00:09:41;94857.28;;;0.02;55.11
74921;BME280;63483;47.384;8.860;2023-12-07T00:12:06;94863.16;;;0.04;55.10
74921;BME280;63483;47.384;8.860;2023-12-07T00:14:31;94862.44;;;0.02;55.15
74921;BME280;63483;47.384;8.860;2023-12-07T00:16:57;94867.59;;;0.02;55.09
74921;BME280;63483;47.384;8.860;2023-12-07T00:19:22;94857.28;;;0.02;54.39
74921;BME280;63483;47.384;8.860;2023-12-07T00:21:47;94864.06;;;0.03;55.25
74921;BME280;63483;47.384;8.860;2023-12-07T00:24:13;94862.44;;;0.02;55.28
74921;BME280;63483;47.384;8.860;2023-12-07T00:26:38;94860.56;;;0.04;54.82
74921;BME280;63483;47.384;8.860;2023-12-07T00:29:03;94860.56;;;0.04;54.94
74921;BME280;63483;47.384;8.860;2023-12-07T00:31:29;94860.56;;;0.04;54.54
74921;BME280;63483;47.384;8.860;2023-12-07T00:33:54;94867.28;;;0.07;54.80
74921;BME280;63483;47.384;8.860;2023-12-07T00:36:19;94867.38;;;0.05;55.07
74921;BME280;63483;47.384;8.860;2023-12-07T00:38:45;94864.69;;;0.07;54.63
74921;BME280;63483;47.384;8.860;2023-12-07T00:41:10;94860.34;;;0.07;54.74
74921;BME280;63483;47.384;8.860;2023-12-07T00:43:36;94859.44;;;0.08;54.37
74921;BME280;63483;47.384;8.860;2023-12-07T00:46:01;94851.69;;;0.08;54.71
74921;BME280;63483;47.384;8.860;2023-12-07T00:48:27;94854.97;;;0.10;55.00
74921;BME280;63483;47.384;8.860;2023-12-07T00:50:52;94849.69;;;0.00;54.66
74921;BME280;63483;47.384;8.860;2023-12-07T00:53:18;94850.06;;;-1.19;51.33
74921;BME280;63483;47.384;8.860;2023-12-07T00:55:43;94850.28;;;-1.87;49.51
74921;BME280;63483;47.384;8.860;2023-12-07T00:58:09;94858.16;;;-2.45;50.63
74921;BME280;63483;47.384;8.860;2023-12-07T01:00:34;94851.53;;;-2.91;51.52
74921;BME280;63483;47.384;8.860;2023-12-07T01:02:59;94851.06;;;-3.26;51.22
74921;BME280;63483;47.384;8.860;2023-12-07T01:05:25;94858.34;;;-3.49;52.19
74921;BME280;63483;47.384;8.860;2023-12-07T01:07:51;94864.59;;;-3.69;51.73
74921;BME280;63483;47.384;8.860;2023-12-07T01:10:16;94871.22;;;-3.81;51.96
74921;BME280;63483;47.384;8.860;2023-12-07T01:12:41;94866.63;;;-3.90;51.96
74921;BME280;63483;47.384;8.860;2023-12-07T01:15:07;94875.38;;;-3.94;51.71
74921;BME280;63483;47.384;8.860;2023-12-07T01:17:33;94865.59;;;-4.02;50.71
74921;BME280;63483;47.384;8.860;2023-12-07T01:19:58;94868.78;;;-3.98;51.46
74921;BME280;63483;47.384;8.860;2023-12-07T01:22:23;94864.59;;;-3.99;51.09
74921;BME280;63483;47.384;8.860;2023-12-07T01:24:48;94868.88;;;-4.00;50.98
74921;BME280;63483;47.384;8.860;2023-12-07T01:27:14;94866.81;;;-3.93;49.65
74921;BME280;63483;47.384;8.860;2023-12-07T01:29:39;94877.16;;;-3.80;49.77
74921;BME280;63483;47.384;8.860;2023-12-07T01:32:05;94875.47;;;-3.66;49.92
74921;BME280;63483;47.384;8.860;2023-12-07T01:34:31;94870.84;;;-3.59;50.58
74921;BME280;63483;47.384;8.860;2023-12-07T01:36:57;94878.56;;;-3.30;53.20
74921;BME280;63483;47.384;8.860;2023-12-07T01:39:23;94872.28;;;-2.81;55.10
74921;BME280;63483;47.384;8.860;2023-12-07T01:41:51;94877.59;;;-2.41;56.64
74921;BME280;63483;47.384;8.860;2023-12-07T01:44:16;94875.13;;;-2.15;55.64
74921;BME280;63483;47.384;8.860;2023-12-07T01:46:42;94879.63;;;-1.92;56.16
74921;BME280;63483;47.384;8.860;2023-12-07T01:49:08;94880.84;;;-1.70;55.37
74921;BME280;63483;47.384;8.860;2023-12-07T01:51:33;94879.75;;;-1.53;55.80
74921;BME280;63483;47.384;8.860;2023-12-07T01:53:59;94889.94;;;-1.39;55.70
74921;BME280;63483;47.384;8.860;2023-12-07T01:56:25;94888.16;;;-1.64;60.56
74921;BME280;63483;47.384;8.860;2023-12-07T01:58:51;94888.94;;;-2.45;55.75
74921;BME280;63483;47.384;8.860;2023-12-07T02:01:16;94889.88;;;-3.04;53.47
74921;BME280;63483;47.384;8.860;2023-12-07T02:03:42;94901.41;;;-3.56;52.83
74921;BME280;63483;47.384;8.860;2023-12-07T02:06:08;94888.75;;;-3.89;52.89
74921;BME280;63483;47.384;8.860;2023-12-07T02:08:36;94885.81;;;-4.13;53.15
74921;BME280;63483;47.384;8.860;2023-12-07T02:11:07;94895.31;;;-4.31;53.00
74921;BME280;63483;47.384;8.860;2023-12-07T02:13:35;94897.78;;;-4.46;53.37
74921;BME280;63483;47.384;8.860;2023-12-07T02:16:01;94887.47;;;-4.60;54.02
74921;BME280;63483;47.384;8.860;2023-12-07T02:18:45;94888.22;;;-4.58;52.50
74921;BME280;63483;47.384;8.860;2023-12-07T02:21:21;94874.75;;;-4.46;53.29
74921;BME280;63483;47.384;8.860;2023-12-07T02:23:51;94882.09;;;-4.40;53.03
74921;BME280;63483;47.384;8.860;2023-12-07T02:26:30;94878.22;;;-4.15;54.12
74921;BME280;63483;47.384;8.860;2023-12-07T02:28:56;94874.69;;;-4.12;52.90
74921;BME280;63483;47.384;8.860;2023-12-07T02:31:21;94873.44;;;-4.21;51.07
74921;BME280;63483;47.384;8.860;2023-12-07T02:33:46;94877.88;;;-4.09;50.64
74921;BME280;63483;47.384;8.860;2023-12-07T02:36:13;94880.84;;;-4.01;50.06
74921;BME280;63483;47.384;8.860;2023-12-07T02:38:41;94882.66;;;-4.03;49.14
74921;BME280;63483;47.384;8.860;2023-12-07T02:41:07;94885.88;;;-3.83;51.71
74921;BME280;63483;47.384;8.860;2023-12-07T02:43:33;94887.91;;;-3.29;56.33
74921;BME280;63483;47.384;8.860;2023-12-07T02:45:58;94898.28;;;-2.87;56.15
74921;BME280;63483;47.384;8.860;2023-12-07T02:48:24;94895.56;;;-2.55;56.22
74921;BME280;63483;47.384;8.860;2023-12-07T02:50:49;94895.69;;;-2.30;55.18
74921;BME280;63483;47.384;8.860;2023-12-07T02:53:14;94899.50;;;-2.08;55.77
74921;BME280;63483;47.384;8.860;2023-12-07T02:55:40;94884.78;;;-1.92;54.89
74921;BME280;63483;47.384;8.860;2023-12-07T02:58:05;94886.66;;;-1.81;54.86
74921;BME280;63483;47.384;8.860;2023-12-07T03:00:31;94889.28;;;-1.68;55.76
74921;BME280;63483;47.384;8.860;2023-12-07T03:02:57;94891.97;;;-1.57;55.34
74921;BME280;63483;47.384;8.860;2023-12-07T03:05:22;94884.75;;;-1.64;55.29
74921;BME280;63483;47.384;8.860;2023-12-07T03:07:48;94885.50;;;-1.90;57.71
74921;BME280;63483;47.384;8.860;2023-12-07T03:10:13;94882.66;;;-1.85;58.38
74921;BME280;63483;47.384;8.860;2023-12-07T03:12:39;94883.63;;;-1.60;57.81
74921;BME280;63483;47.384;8.860;2023-12-07T03:15:04;94886.84;;;-1.57;57.55
74921;BME280;63483;47.384;8.860;2023-12-07T03:17:30;94884.59;;;-1.48;57.43
74921;BME280;63483;47.384;8.860;2023-12-07T03:19:55;94880.28;;;-1.35;57.50
74921;BME280;63483;47.384;8.860;2023-12-07T03:22:21;94889.13;;;-1.26;56.59
74921;BME280;63483;47.384;8.860;2023-12-07T03:24:50;94877.63;;;-1.21;56.55
74921;BME280;63483;47.384;8.860;2023-12-07T03:27:15;94887.50;;;-1.14;56.46
74921;BME280;63483;47.384;8.860;2023-12-07T03:29:40;94888.97;;;-1.10;56.46
74921;BME280;63483;47.384;8.860;2023-12-07T03:32:06;94877.44;;;-1.05;56.39
74921;BME280;63483;47.384;8.860;2023-12-07T03:34:31;94886.53;;;-0.99;56.14
74921;BME280;63483;47.384;8.860;2023-12-07T03:36:57;94887.75;;;-0.92;55.99
74921;BME280;63483;47.384;8.860;2023-12-07T03:39:22;94884.03;;;-0.88;55.79
74921;BME280;63483;47.384;8.860;2023-12-07T03:41:48;94888.97;;;-0.85;55.36
74921;BME280;63483;47.384;8.860;2023-12-07T03:44:14;94887.16;;;-0.82;55.26
74921;BME280;63483;47.384;8.860;2023-12-07T03:46:39;94896.28;;;-0.78;55.78
74921;BME280;63483;47.384;8.860;2023-12-07T03:49:05;94894.34;;;-0.75;55.75
74921;BME280;63483;47.384;8.860;2023-12-07T03:51:30;94889.78;;;-0.71;55.83
74921;BME280;63483;47.384;8.860;2023-12-07T03:53:55;94893.09;;;-0.69;55.58
74921;BME280;63483;47.384;8.860;2023-12-07T03:58:50;94883.31;;;-0.64;55.42
74921;BME280;63483;47.384;8.860;2023-12-07T04:01:15;94889.19;;;-0.62;55.64
74921;BME280;63483;47.384;8.860;2023-12-07T04:03:40;94867.16;;;-0.66;55.21
74921;BME280;63483;47.384;8.860;2023-12-07T04:06:06;94884.25;;;-0.65;55.01
74921;BME280;63483;47.384;8.860;2023-12-07T04:08:31;94876.31;;;-0.62;55.23
74921;BME280;63483;47.384;8.860;2023-12-07T04:10:57;94890.81;;;-0.61;55.17
74921;BME280;63483;47.384;8.860;2023-12-07T04:13:22;94887.31;;;-0.60;54.68
74921;BME280;63483;47.384;8.860;2023-12-07T04:15:47;94877.72;;;-0.58;55.22
74921;BME280;63483;47.384;8.860;2023-12-07T04:18:13;94880.31;;;-0.58;55.40
74921;BME280;63483;47.384;8.860;2023-12-07T04:20:38;94887.09;;;-0.57;55.13
74921;BME280;63483;47.384;8.860;2023-12-07T04:23:03;94895.63;;;-0.56;54.74
74921;BME280;63483;47.384;8.860;2023-12-07T04:25:28;94893.06;;;-0.56;54.53
74921;BME280;63483;47.384;8.860;2023-12-07T04:27:54;94894.72;;;-1.20;54.60
74921;BME280;63483;47.384;8.860;2023-12-07T04:30:19;94893.28;;;-1.64;48.88
74921;BME280;63483;47.384;8.860;2023-12-07T04:32:44;94885.69;;;-1.93;48.08
74921;BME280;63483;47.384;8.860;2023-12-07T04:35:10;94886.66;;;-2.08;47.33
74921;BME280;63483;47.384;8.860;2023-12-07T04:37:35;94892.75;;;-2.23;46.89
74921;BME280;63483;47.384;8.860;2023-12-07T04:40:00;94887.59;;;-2.23;47.79
74921;BME280;63483;47.384;8.860;2023-12-07T04:42:26;94884.50;;;-2.29;47.48
74921;BME280;63483;47.384;8.860;2023-12-07T04:44:51;94891.78;;;-2.08;51.43
74921;BME280;63483;47.384;8.860;2023-12-07T04:47:17;94893.47;;;-2.63;61.76
74921;BME280;63483;47.384;8.860;2023-12-07T04:49:42;94896.44;;;-3.14;54.29
74921;BME280;63483;47.384;8.860;2023-12-07T04:52:07;94897.09;;;-3.55;52.54
74921;BME280;63483;47.384;8.860;2023-12-07T04:54:33;94904.09;;;-3.89;52.38
74921;BME280;63483;47.384;8.860;2023-12-07T04:56:58;94892.41;;;-4.25;52.41
74921;BME280;63483;47.384;8.860;2023-12-07T04:59:23;94895.53;;;-4.52;53.36
74921;BME280;63483;47.384;8.860;2023-12-07T05:01:49;94903.28;;;-4.69;53.03
74921;BME280;63483;47.384;8.860;2023-12-07T05:04:14;94888.75;;;-4.85;51.96
74921;BME280;63483;47.384;8.860;2023-12-07T05:06:39;94897.63;;;-4.92;51.39
74921;BME280;63483;47.384;8.860;2023-12-07T05:09:05;94891.03;;;-4.96;52.52
74921;BME280;63483;47.384;8.860;2023-12-07T05:11:33;94892.75;;;-4.97;52.26
74921;BME280;63483;47.384;8.860;2023-12-07T05:13:59;94891.25;;;-5.01;52.01
74921;BME280;63483;47.384;8.860;2023-12-07T05:16:24;94890.69;;;-4.90;51.34
74921;BME280;63483;47.384;8.860;2023-12-07T05:18:49;94885.28;;;-4.84;51.55
74921;BME280;63483;47.384;8.860;2023-12-07T05:21:15;94884.22;;;-4.80;51.94
74921;BME280;63483;47.384;8.860;2023-12-07T05:23:40;94888.09;;;-4.73;51.73
74921;BME280;63483;47.384;8.860;2023-12-07T05:26:05;94884.00;;;-4.59;50.35
74921;BME280;63483;47.384;8.860;2023-12-07T05:28:33;94880.88;;;-4.32;50.33
74921;BME280;63483;47.384;8.860;2023-12-07T05:30:58;94877.06;;;-4.25;48.37
74921;BME280;63483;47.384;8.860;2023-12-07T05:33:23;94879.38;;;-4.05;51.91
74921;BME280;63483;47.384;8.860;2023-12-07T05:35:50;94877.66;;;-3.74;50.51
74921;BME280;63483;47.384;8.860;2023-12-07T05:38:15;94880.72;;;-3.53;50.17
74921;BME280;63483;47.384;8.860;2023-12-07T05:40:40;94878.13;;;-3.37;50.43
74921;BME280;63483;47.384;8.860;2023-12-07T05:43:06;94873.38;;;-3.14;53.25
74921;BME280;63483;47.384;8.860;2023-12-07T05:45:33;94878.06;;;-2.92;53.39
74921;BME280;63483;47.384;8.860;2023-12-07T05:47:58;94887.03;;;-3.58;61.98
74921;BME280;63483;47.384;8.860;2023-12-07T05:50:23;94880.78;;;-4.15;53.37
74921;BME280;63483;47.384;8.860;2023-12-07T05:52:49;94876.47;;;-4.62;51.93
74921;BME280;63483;47.384;8.860;2023-12-07T05:55:14;94873.91;;;-4.94;53.07
74921;BME280;63483;47.384;8.860;2023-12-07T05:57:40;94877.06;;;-5.07;54.19
74921;BME280;63483;47.384;8.860;2023-12-07T06:00:06;94879.22;;;-5.32;52.28
74921;BME280;63483;47.384;8.860;2023-12-07T06:02:35;94874.72;;;-5.45;52.50
74921;BME280;63483;47.384;8.860;2023-12-07T06:05:02;94877.13;;;-5.59;53.19
74921;BME280;63483;47.384;8.860;2023-12-07T06:07:29;94885.22;;;-5.51;54.00
74921;BME280;63483;47.384;8.860;2023-12-07T06:09:54;94879.00;;;-5.63;51.54
74921;BME280;63483;47.384;8.860;2023-12-07T06:12:20;94879.38;;;-5.70;51.05
74921;BME280;63483;47.384;8.860;2023-12-07T06:14:47;94881.19;;;-5.72;51.09
74921;BME280;63483;47.384;8.860;2023-12-07T06:17:12;94878.78;;;-5.75;50.20
74921;BME280;63483;47.384;8.860;2023-12-07T06:19:38;94878.72;;;-5.74;50.70
74921;BME280;63483;47.384;8.860;2023-12-07T06:22:03;94882.09;;;-5.73;50.35
74921;BME280;63483;47.384;8.860;2023-12-07T06:24:28;94878.72;;;-5.74;48.74
74921;BME280;63483;47.384;8.860;2023-12-07T06:26:54;94870.16;;;-5.73;49.03
74921;BME280;63483;47.384;8.860;2023-12-07T06:29:20;94866.41;;;-5.66;48.96
74921;BME280;63483;47.384;8.860;2023-12-07T06:31:45;94868.56;;;-5.58;47.80
74921;BME280;63483;47.384;8.860;2023-12-07T06:34:11;94865.81;;;-5.53;48.27
74921;BME280;63483;47.384;8.860;2023-12-07T06:36:36;94880.34;;;-5.38;49.28
74921;BME280;63483;47.384;8.860;2023-12-07T06:39:02;94885.75;;;-5.27;47.58
74921;BME280;63483;47.384;8.860;2023-12-07T06:41:28;94883.84;;;-5.05;49.40
74921;BME280;63483;47.384;8.860;2023-12-07T06:43:53;94889.44;;;-4.65;51.84
74921;BME280;63483;47.384;8.860;2023-12-07T06:46:19;94879.22;;;-4.33;53.06
74921;BME280;63483;47.384;8.860;2023-12-07T06:48:45;94889.78;;;-4.08;52.03
74921;BME280;63483;47.384;8.860;2023-12-07T06:51:10;94886.59;;;-3.81;53.88
74921;BME280;63483;47.384;8.860;2023-12-07T06:53:35;94884.75;;;-3.79;59.66
74921;BME280;63483;47.384;8.860;2023-12-07T06:56:01;94882.34;;;-3.36;56.63
74921;BME280;63483;47.384;8.860;2023-12-07T06:58:26;94887.84;;;-3.13;56.27
74921;BME280;63483;47.384;8.860;2023-12-07T07:00:51;94884.28;;;-2.96;56.05
74921;BME280;63483;47.384;8.860;2023-12-07T07:03:16;94880.91;;;-2.82;55.38
74921;BME280;63483;47.384;8.860;2023-12-07T07:05:42;94887.13;;;-2.72;54.81
74921;BME280;63483;47.384;8.860;2023-12-07T07:08:08;94874.66;;;-2.64;54.30
74921;BME280;63483;47.384;8.860;2023-12-07T07:10:34;94885.38;;;-2.57;53.75
74921;BME280;63483;47.384;8.860;2023-12-07T07:13:02;94880.69;;;-2.50;54.12
74921;BME280;63483;47.384;8.860;2023-12-07T07:15:30;94891.50;;;-2.45;53.44
74921;BME280;63483;47.384;8.860;2023-12-07T07:17:55;94899.66;;;-2.96;55.83
74921;BME280;63483;47.384;8.860;2023-12-07T07:20:21;94891.72;;;-3.81;49.77
74921;BME280;63483;47.384;8.860;2023-12-07T07:22:47;94895.53;;;-4.52;48.35
74921;BME280;63483;47.384;8.860;2023-12-07T07:25:12;94895.88;;;-5.08;48.59
74921;BME280;63483;47.384;8.860;2023-12-07T07:27:40;94895.13;;;-5.45;49.15
74921;BME280;63483;47.384;8.860;2023-12-07T07:30:06;94884.31;;;-5.85;49.90
74921;BME280;63483;47.384;8.860;2023-12-07T07:32:31;94884.72;;;-6.12;50.62
74921;BME280;63483;47.384;8.860;2023-12-07T07:34:57;94883.13;;;-6.32;50.44
74921;BME280;63483;47.384;8.860;2023-12-07T07:37:22;94886.59;;;-6.52;50.92
74921;BME280;63483;47.384;8.860;2023-12-07T07:39:47;94883.63;;;-6.61;50.95
74921;BME280;63483;47.384;8.860;2023-12-07T07:42:13;94883.28;;;-6.73;50.84
74921;BME280;63483;47.384;8.860;2023-12-07T07:44:38;94889.47;;;-6.78;51.06
74921;BME280;63483;47.384;8.860;2023-12-07T07:47:04;94877.47;;;-6.76;50.52
74921;BME280;63483;47.384;8.860;2023-12-07T07:49:29;94872.38;;;-6.76;50.64
74921;BME280;63483;47.384;8.860;2023-12-07T07:51:54;94870.91;;;-6.80;50.28
74921;BME280;63483;47.384;8.860;2023-12-07T07:54:20;94871.78;;;-6.81;47.80
74921;BME280;63483;47.384;8.860;2023-12-07T07:56:45;94878.19;;;-6.73;49.78
74921;BME280;63483;47.384;8.860;2023-12-07T07:59:10;94872.00;;;-6.67;49.88
74921;BME280;63483;47.384;8.860;2023-12-07T08:01:36;94873.69;;;-6.68;49.41
74921;BME280;63483;47.384;8.860;2023-12-07T08:04:02;94871.28;;;-6.52;49.45
74921;BME280;63483;47.384;8.860;2023-12-07T08:06:27;94863.03;;;-6.38;49.40
74921;BME280;63483;47.384;8.860;2023-12-07T08:08:52;94867.13;;;-6.35;48.15
74921;BME280;63483;47.384;8.860;2023-12-07T08:11:17;94849.59;;;-6.05;47.94
74921;BME280;63483;47.384;8.860;2023-12-07T08:13:43;94855.03;;;-5.95;47.12
74921;BME280;63483;47.384;8.860;2023-12-07T08:16:08;94861.88;;;-5.96;46.99
74921;BME280;63483;47.384;8.860;2023-12-07T08:18:34;94856.41;;;-5.88;47.60
74921;BME280;63483;47.384;8.860;2023-12-07T08:20:59;94858.03;;;-5.34;52.21
74921;BME280;63483;47.384;8.860;2023-12-07T08:23:25;94859.78;;;-5.70;63.33
74921;BME280;63483;47.384;8.860;2023-12-07T08:25:50;94858.94;;;-6.05;55.50
74921;BME280;63483;47.384;8.860;2023-12-07T08:28:15;94856.13;;;-6.36;52.85
74921;BME280;63483;47.384;8.860;2023-12-07T08:30:41;94850.59;;;-6.63;52.15
74921;BME280;63483;47.384;8.860;2023-12-07T08:33:06;94849.81;;;-6.84;52.13
74921;BME280;63483;47.384;8.860;2023-12-07T08:35:31;94846.09;;;-6.96;53.23
74921;BME280;63483;47.384;8.860;2023-12-07T08:37:57;94847.19;;;-7.02;53.50
74921;BME280;63483;47.384;8.860;2023-12-07T08:40:22;94848.31;;;-7.07;53.48
74921;BME280;63483;47.384;8.860;2023-12-07T08:42:48;94846.91;;;-7.14;54.46
74921;BME280;63483;47.384;8.860;2023-12-07T08:45:14;94854.63;;;-7.16;53.66
74921;BME280;63483;47.384;8.860;2023-12-07T08:47:39;94852.47;;;-7.06;52.25
74921;BME280;63483;47.384;8.860;2023-12-07T08:50:05;94846.50;;;-7.05;52.60
74921;BME280;63483;47.384;8.860;2023-12-07T08:52:33;94844.63;;;-7.02;52.56
74921;BME280;63483;47.384;8.860;2023-12-07T08:54:58;94836.75;;;-6.95;53.14
74921;BME280;63483;47.384;8.860;2023-12-07T08:57:23;94833.00;;;-6.88;53.08
74921;BME280;63483;47.384;8.860;2023-12-07T08:59:49;94831.63;;;-6.76;52.71
74921;BME280;63483;47.384;8.860;2023-12-07T09:02:14;94823.59;;;-6.67;51.69
74921;BME280;63483;47.384;8.860;2023-12-07T09:04:39;94827.50;;;-6.60;51.27
74921;BME280;63483;47.384;8.860;2023-12-07T09:07:07;94829.78;;;-6.54;50.92
74921;BME280;63483;47.384;8.860;2023-12-07T09:09:34;94815.41;;;-6.37;49.86
74921;BME280;63483;47.384;8.860;2023-12-07T09:11:59;94818.63;;;-6.34;49.87
74921;BME280;63483;47.384;8.860;2023-12-07T09:14:25;94822.88;;;-6.15;49.55
74921;BME280;63483;47.384;8.860;2023-12-07T09:16:51;94834.94;;;-6.01;49.95
74921;BME280;63483;47.384;8.860;2023-12-07T09:19:17;94838.13;;;-5.96;48.25
74921;BME280;63483;47.384;8.860;2023-12-07T09:21:42;94836.31;;;-5.59;48.86
74921;BME280;63483;47.384;8.860;2023-12-07T09:24:07;94852.34;;;-5.39;47.66
74921;BME280;63483;47.384;8.860;2023-12-07T09:26:33;94851.28;;;-5.18;46.74
74921;BME280;63483;47.384;8.860;2023-12-07T09:28:59;94851.16;;;-4.83;51.07
74921;BME280;63483;47.384;8.860;2023-12-07T09:31:24;94852.09;;;-5.17;63.32
74921;BME280;63483;47.384;8.860;2023-12-07T09:33:50;94842.44;;;-5.46;59.86
74921;BME280;63483;47.384;8.860;2023-12-07T09:36:18;94839.59;;;-5.74;55.18
74921;BME280;63483;47.384;8.860;2023-12-07T09:38:44;94827.47;;;-5.87;55.50
74921;BME280;63483;47.384;8.860;2023-12-07T09:41:10;94826.09;;;-5.94;55.61
74921;BME280;63483;47.384;8.860;2023-12-07T09:43:36;94818.28;;;-6.08;55.15
74921;BME280;63483;47.384;8.860;2023-12-07T09:46:02;94816.03;;;-6.15;54.81
74921;BME280;63483;47.384;8.860;2023-12-07T09:48:28;94817.06;;;-6.19;54.40
74921;BME280;63483;47.384;8.860;2023-12-07T09:50:55;94816.25;;;-6.19;54.25
74921;BME280;63483;47.384;8.860;2023-12-07T09:53:21;94810.28;;;-6.18;54.34
74921;BME280;63483;47.384;8.860;2023-12-07T09:55:47;94822.94;;;-6.17;54.08
74921;BME280;63483;47.384;8.860;2023-12-07T09:58:12;94818.91;;;-6.03;52.75
74921;BME280;63483;47.384;8.860;2023-12-07T10:00:38;94815.75;;;-5.91;52.91
74921;BME280;63483;47.384;8.860;2023-12-07T10:03:05;94813.88;;;-5.03;57.10
74921;BME280;63483;47.384;8.860;2023-12-07T10:05:33;94816.53;;;-4.41;56.93
74921;BME280;63483;47.384;8.860;2023-12-07T10:07:58;94813.97;;;-3.94;57.49
74921;BME280;63483;47.384;8.860;2023-12-07T10:10:24;94803.38;;;-3.58;57.07
74921;BME280;63483;47.384;8.860;2023-12-07T10:12:53;94802.28;;;-3.25;58.27
74921;BME280;63483;47.384;8.860;2023-12-07T10:15:19;94800.81;;;-3.00;56.65
74921;BME280;63483;47.384;8.860;2023-12-07T10:17:46;94797.78;;;-2.78;55.77
74921;BME280;63483;47.384;8.860;2023-12-07T10:20:16;94788.22;;;-2.62;55.98
74921;BME280;63483;47.384;8.860;2023-12-07T10:22:42;94788.06;;;-2.46;57.04
74921;BME280;63483;47.384;8.860;2023-12-07T10:25:07;94787.94;;;-2.30;56.91
74921;BME280;63483;47.384;8.860;2023-12-07T10:27:34;94776.44;;;-2.24;56.86
74921;BME280;63483;47.384;8.860;2023-12-07T10:30:00;94775.50;;;-2.09;56.79
74921;BME280;63483;47.384;8.860;2023-12-07T10:32:26;94765.44;;;-1.99;56.31
74921;BME280;63483;47.384;8.860;2023-12-07T10:34:52;94754.34;;;-1.86;55.56
74921;BME280;63483;47.384;8.860;2023-12-07T10:37:18;94744.41;;;-1.78;55.64
74921;BME280;63483;47.384;8.860;2023-12-07T10:39:43;94740.41;;;-1.69;56.08
74921;BME280;63483;47.384;8.860;2023-12-07T10:42:10;94743.19;;;-1.60;55.74
74921;BME280;63483;47.384;8.860;2023-12-07T10:44:41;94730.63;;;-1.51;55.51
74921;BME280;63483;47.384;8.860;2023-12-07T10:47:09;94726.75;;;-1.44;54.86
74921;BME280;63483;47.384;8.860;2023-12-07T10:49:37;94736.00;;;-1.42;55.14
74921;BME280;63483;47.384;8.860;2023-12-07T10:52:12;94739.06;;;-1.37;55.26
74921;BME280;63483;47.384;8.860;2023-12-07T10:54:43;94744.00;;;-1.33;55.29
74921;BME280;63483;47.384;8.860;2023-12-07T10:57:13;94732.25;;;-1.25;55.15
74921;BME280;63483;47.384;8.860;2023-12-07T10:59:41;94734.19;;;-1.15;54.86
74921;BME280;63483;47.384;8.860;2023-12-07T11:02:09;94731.44;;;-1.12;55.00
74921;BME280;63483;47.384;8.860;2023-12-07T11:04:38;94726.19;;;-1.11;54.41
74921;BME280;63483;47.384;8.860;2023-12-07T11:07:07;94737.81;;;-1.82;51.77
74921;BME280;63483;47.384;8.860;2023-12-07T11:09:47;94739.63;;;-2.10;51.79
74921;BME280;63483;47.384;8.860;2023-12-07T11:12:31;94743.09;;;-2.24;51.05
74921;BME280;63483;47.384;8.860;2023-12-07T11:14:58;94741.69;;;-2.15;53.34
74921;BME280;63483;47.384;8.860;2023-12-07T11:17:24;94734.41;;;-1.96;55.36
74921;BME280;63483;47.384;8.860;2023-12-07T11:19:49;94739.78;;;-1.86;56.09
74921;BME280;63483;47.384;8.860;2023-12-07T11:22:15;94739.06;;;-1.62;55.25
74921;BME280;63483;47.384;8.860;2023-12-07T11:24:57;94726.00;;;-1.72;55.75
74921;BME280;63483;47.384;8.860;2023-12-07T11:27:29;94716.47;;;-1.70;55.60
74921;BME280;63483;47.384;8.860;2023-12-07T11:29:55;94723.66;;;-1.62;56.01
74921;BME280;63483;47.384;8.860;2023-12-07T11:32:20;94720.16;;;-1.48;55.63
74921;BME280;63483;47.384;8.860;2023-12-07T11:34:45;94719.13;;;-1.33;55.01
74921;BME280;63483;47.384;8.860;2023-12-07T11:37:15;94711.69;;;-1.25;55.00
74921;BME280;63483;47.384;8.860;2023-12-07T11:39:42;94709.56;;;-1.31;57.38
74921;BME280;63483;47.384;8.860;2023-12-07T11:42:19;94699.16;;;-1.29;55.51
74921;BME280;63483;47.384;8.860;2023-12-07T11:44:47;94692.00;;;-1.37;54.02
74921;BME280;63483;47.384;8.860;2023-12-07T11:47:18;94683.56;;;-1.39;55.61
74921;BME280;63483;47.384;8.860;2023-12-07T11:49:44;94682.00;;;-1.29;53.77
74921;BME280;63483;47.384;8.860;2023-12-07T11:52:19;94666.19;;;-1.23;55.47
74921;BME280;63483;47.384;8.860;2023-12-07T11:54:46;94658.25;;;-1.20;55.26
74921;BME280;63483;47.384;8.860;2023-12-07T11:57:13;94652.88;;;-1.16;55.48
74921;BME280;63483;47.384;8.860;2023-12-07T11:59:38;94651.25;;;-1.17;51.36
74921;BME280;63483;47.384;8.860;2023-12-07T12:02:04;94644.44;;;-1.19;52.01
74921;BME280;63483;47.384;8.860;2023-12-07T12:04:29;94636.00;;;-1.45;49.98
74921;BME280;63483;47.384;8.860;2023-12-07T12:06:54;94639.44;;;-1.83;48.22
74921;BME280;63483;47.384;8.860;2023-12-07T12:09:20;94644.78;;;-1.99;49.07
74921;BME280;63483;47.384;8.860;2023-12-07T12:11:46;94648.69;;;-2.06;49.24
74921;BME280;63483;47.384;8.860;2023-12-07T12:14:15;94639.25;;;-2.05;49.29
74921;BME280;63483;47.384;8.860;2023-12-07T12:16:42;94636.13;;;-1.72;52.36
74921;BME280;63483;47.384;8.860;2023-12-07T12:19:08;94628.75;;;-1.77;49.84
74921;BME280;63483;47.384;8.860;2023-12-07T12:21:35;94618.47;;;-1.90;48.34
74921;BME280;63483;47.384;8.860;2023-12-07T12:24:00;94614.38;;;-1.79;50.22
74921;BME280;63483;47.384;8.860;2023-12-07T12:26:26;94604.09;;;-1.79;50.11
74921;BME280;63483;47.384;8.860;2023-12-07T12:28:52;94607.34;;;-1.64;51.59
74921;BME280;63483;47.384;8.860;2023-12-07T12:31:18;94606.31;;;-1.49;55.21
74921;BME280;63483;47.384;8.860;2023-12-07T12:33:43;94605.41;;;-1.24;52.78
74921;BME280;63483;47.384;8.860;2023-12-07T12:36:09;94601.69;;;-1.20;53.87
74921;BME280;63483;47.384;8.860;2023-12-07T12:38:36;94598.22;;;-0.94;54.51
74921;BME280;63483;47.384;8.860;2023-12-07T12:41:02;94590.59;;;-0.72;54.50
74921;BME280;63483;47.384;8.860;2023-12-07T12:43:30;94584.19;;;-0.66;53.84
74921;BME280;63483;47.384;8.860;2023-12-07T12:45:57;94581.13;;;-0.71;54.27
74921;BME280;63483;47.384;8.860;2023-12-07T12:48:22;94583.50;;;-0.57;54.48
74921;BME280;63483;47.384;8.860;2023-12-07T12:50:48;94575.94;;;-0.36;53.94
74921;BME280;63483;47.384;8.860;2023-12-07T12:53:14;94575.59;;;-0.42;54.00
74921;BME280;63483;47.384;8.860;2023-12-07T12:55:40;94588.69;;;-0.45;54.13
74921;BME280;63483;47.384;8.860;2023-12-07T12:58:07;94588.94;;;-0.37;53.60